Time;durP1;ratioP1;P1;durP2;ratioP2;P2;SDS_P1;SDS_P2;PMS_P1;PMS_P2;Temp;Humidity;BMP_temperature;BMP_pressure;BME280_temperature;BME280_humidity;BME280_pressure;Samples;Min_cycle;Max_cycle;Signal;HPM_P1;HPM_P2
2021/07/24 00:00:35;;;;;;;1.58;1.08;;;15.60;69.80;;;18.45;57.09;101345.81;5038975;27;97633;-72
2021/07/24 00:03:05;;;;;;;0.82;0.82;;;15.60;69.80;;;18.39;57.33;101343.66;5039283;27;97022;-72
2021/07/24 00:05:34;;;;;;;0.28;0.28;;;15.50;69.80;;;18.34;57.63;101338.44;5035420;27;97036;-72
2021/07/24 00:08:07;;;;;;;0.93;0.93;;;15.50;69.80;;;18.28;57.32;101339.81;5035966;27;98553;-72
2021/07/24 00:10:36;;;;;;;4.85;1.25;;;15.50;69.80;;;18.29;57.03;101344.88;5038698;27;96862;-72
2021/07/24 00:13:06;;;;;;;2.00;0.75;;;15.50;69.80;;;18.32;57.19;101338.81;5035084;27;96802;-72
2021/07/24 00:15:35;;;;;;;1.60;0.40;;;15.50;69.80;;;18.30;56.70;101346.47;5041182;27;97014;-72
2021/07/24 00:18:05;;;;;;;11.80;1.30;;;15.50;69.90;;;18.31;57.35;101350.75;5038760;27;97905;-72
2021/07/24 00:20:35;;;;;;;5.78;1.38;;;15.40;69.80;;;18.31;57.22;101345.31;5038677;27;97000;-72
2021/07/24 00:23:08;;;;;;;3.30;1.15;;;15.50;69.90;;;18.31;57.19;101350.75;5037896;27;96728;-72
2021/07/24 00:25:37;;;;;;;0.28;0.28;;;15.50;69.90;;;18.27;57.18;101338.22;5036475;27;97079;-72
2021/07/24 00:28:08;;;;;;;3.85;1.70;;;15.40;69.90;;;18.23;57.43;101332.63;5043163;27;97818;-72
2021/07/24 00:30:38;;;;;;;0.50;0.50;;;15.50;70.00;;;18.24;57.20;101334.22;5020344;27;97677;-72
2021/07/24 00:33:12;;;;;;;1.50;1.45;;;15.40;69.90;;;18.22;57.43;101336.47;5037259;27;97234;-72
2021/07/24 00:35:41;;;;;;;0.30;0.30;;;15.40;70.00;;;18.20;57.06;101335.25;5034376;27;96937;-72
2021/07/24 00:38:09;;;;;;;2.92;1.45;;;15.40;70.00;;;18.19;57.04;101330.97;5034939;27;97820;-72
2021/07/24 00:40:47;;;;;;;1.98;0.88;;;15.40;70.00;;;18.18;57.01;101329.38;5037753;27;96818;-72
2021/07/24 00:43:20;;;;;;;2.03;1.17;;;15.40;70.00;;;18.18;57.53;101330.16;5040439;27;96924;-72
2021/07/24 00:45:54;;;;;;;0.85;0.82;;;15.40;70.10;;;18.15;57.42;101335.44;5020706;27;97004;-73
2021/07/24 00:48:26;;;;;;;2.92;1.90;;;15.30;70.00;;;18.11;57.26;101324.50;5026683;27;97784;-72
2021/07/24 00:51:31;;;;;;;0.43;0.43;;;15.30;70.00;;;18.15;56.89;101324.59;5036862;27;97420;-72
2021/07/24 00:54:05;;;;;;;2.03;0.77;;;15.30;70.10;;;18.14;57.13;101315.69;5037046;27;97054;-72
2021/07/24 00:56:35;;;;;;;1.55;0.80;;;15.30;70.70;;;18.15;57.21;101316.47;5037063;27;96790;-72
2021/07/24 00:59:06;;;;;;;0.95;0.50;;;15.30;70.20;;;18.13;57.02;101319.53;5034564;27;97811;-72
2021/07/24 01:01:36;;;;;;;1.17;0.57;;;15.20;70.10;;;18.13;56.95;101305.97;5034871;27;97910;-72
2021/07/24 01:04:05;;;;;;;0.40;0.40;;;15.20;70.10;;;18.14;56.89;101294.00;5027391;27;97027;-72
2021/07/24 01:06:36;;;;;;;2.00;1.15;;;15.20;70.10;;;18.18;56.70;101294.88;5036034;27;97578;-72
2021/07/24 01:09:05;;;;;;;0.82;0.82;;;15.20;70.20;;;18.11;57.08;101291.94;5035483;27;96904;-72
2021/07/24 01:11:37;;;;;;;0.65;0.30;;;15.20;70.20;;;18.08;56.51;101289.91;5036321;27;97619;-72
2021/07/24 01:14:08;;;;;;;3.78;1.13;;;15.20;70.20;;;18.05;56.75;101282.47;5033329;27;97386;-72
2021/07/24 01:16:37;;;;;;;0.73;0.73;;;15.10;70.20;;;18.04;57.45;101290.91;5035321;27;97076;-72
2021/07/24 01:19:17;;;;;;;0.55;0.55;;;15.10;70.20;;;18.02;56.64;101282.34;5033688;27;98062;-72
2021/07/24 01:21:48;;;;;;;0.88;0.88;;;15.10;70.30;;;17.95;57.30;101277.47;5017849;27;99478;-72
2021/07/24 01:24:18;;;;;;;3.67;1.30;;;15.10;70.40;;;17.99;56.54;101283.00;5037080;27;96933;-72
2021/07/24 01:26:48;;;;;;;5.53;1.02;;;15.10;70.40;;;18.02;56.83;101283.13;5035919;27;96832;-72
2021/07/24 01:29:24;;;;;;;1.00;0.90;;;15.10;70.40;;;18.00;56.55;101285.38;5038581;27;97777;-72
2021/07/24 01:31:58;;;;;;;1.75;0.40;;;15.10;70.40;;;17.96;57.32;101281.75;5026364;27;97750;-72
2021/07/24 01:34:30;;;;;;;0.75;0.75;;;15.10;70.40;;;17.96;56.61;101287.19;5034008;27;97031;-72
2021/07/24 01:37:04;;;;;;;0.95;0.90;;;15.10;70.40;;;18.01;57.10;101281.53;5043306;27;97280;-72
2021/07/24 01:39:33;;;;;;;0.70;0.50;;;15.00;70.40;;;18.00;57.00;101284.59;5033044;27;98921;-72
2021/07/24 01:42:05;;;;;;;2.00;1.42;;;15.00;70.40;;;18.01;57.30;101284.25;5016803;27;98356;-72
2021/07/24 01:44:40;;;;;;;3.10;0.90;;;15.00;70.50;;;18.02;56.51;101288.56;5023438;27;96868;-72
2021/07/24 01:47:09;;;;;;;2.40;1.17;;;15.00;70.50;;;18.00;57.26;101279.94;5038923;27;97157;-72
2021/07/24 01:52:47;;;;;;;1.58;1.00;;;14.90;70.50;;;17.97;56.94;101261.66;5038463;27;97681;-72
2021/07/24 01:55:25;;;;;;;6.82;1.10;;;15.00;70.60;;;17.99;57.14;101251.25;5023956;27;97141;-72
2021/07/24 01:58:04;;;;;;;1.42;1.02;;;15.00;70.60;;;17.99;56.79;101245.06;5041660;27;97386;-73
2021/07/24 02:00:45;;;;;;;0.85;0.85;;;14.90;70.50;;;17.98;56.92;101249.66;5047447;27;97818;-72
2021/07/24 02:03:39;;;;;;;10.27;2.70;;;14.90;70.50;;;17.90;56.99;101252.50;5032005;27;98370;-72
2021/07/24 02:06:27;;;;;;;0.20;0.20;;;14.90;70.60;;;17.96;56.56;101245.72;5033231;27;96682;-72
2021/07/24 02:09:18;;;;;;;3.10;1.33;;;14.90;70.50;;;17.94;56.21;101248.75;5042940;27;96802;-72
2021/07/24 02:11:53;;;;;;;6.07;1.50;;;14.90;70.60;;;17.95;56.50;101250.34;5019267;27;98882;-72
2021/07/24 02:14:25;;;;;;;0.30;0.30;;;14.90;70.70;;;17.92;56.52;101240.19;5036751;27;97232;-72
2021/07/24 02:17:06;;;;;;;0.57;0.57;;;14.90;70.70;;;17.90;57.07;101225.41;5018652;27;97285;-72
2021/07/24 02:19:39;;;;;;;0.47;0.47;;;14.90;70.70;;;17.88;56.71;101225.72;5028978;27;96920;-72
2021/07/24 02:22:08;;;;;;;0.75;0.75;;;14.80;70.60;;;17.90;57.22;101222.69;5038017;27;96912;-72
2021/07/24 02:24:55;;;;;;;6.43;1.48;;;14.80;70.70;;;17.86;56.99;101225.25;5037004;27;98514;-72
2021/07/24 02:27:24;;;;;;;0.73;0.73;;;14.80;70.70;;;17.86;57.36;101213.63;5045316;27;97387;-72
2021/07/24 02:29:54;;;;;;;3.53;0.73;;;14.80;70.70;;;17.80;56.89;101217.69;5036742;27;96939;-72
2021/07/24 02:32:24;;;;;;;1.88;0.93;;;14.80;70.70;;;17.90;56.71;101215.31;5039972;27;96980;-72
2021/07/24 02:34:54;;;;;;;0.40;0.40;;;14.80;70.80;;;17.86;56.55;101203.56;5030265;27;97859;-71
2021/07/24 02:37:23;;;;;;;33.90;1.63;;;14.80;70.70;;;17.76;57.49;101211.34;5037971;27;96764;-72
2021/07/24 02:39:51;;;;;;;0.00;0.00;;;14.80;70.70;;;17.69;57.40;101213.84;5034611;27;96690;-72
2021/07/24 02:42:23;;;;;;;0.50;0.50;;;14.70;70.70;;;17.68;57.36;101212.25;5036229;27;98107;-72
2021/07/24 02:44:54;;;;;;;1.45;1.35;;;14.70;70.80;;;17.71;56.78;101212.38;5039292;27;96897;-73
2021/07/24 02:47:24;;;;;;;0.75;0.70;;;14.70;70.90;;;17.67;57.94;101213.38;5040778;27;97423;-73
2021/07/24 02:49:55;;;;;;;0.30;0.30;;;14.70;70.80;;;17.71;57.32;101222.44;5036083;27;96841;-72
2021/07/24 02:52:24;;;;;;;1.55;1.08;;;14.70;70.90;;;17.75;56.76;101226.03;5036247;27;97922;-72
2021/07/24 02:54:53;;;;;;;1.50;1.40;;;14.70;70.90;;;17.76;56.59;101220.28;5039526;27;97585;-72
2021/07/24 02:57:23;;;;;;;1.55;1.35;;;14.60;70.90;;;17.65;56.63;101212.94;5038945;27;97746;-72
2021/07/24 02:59:52;;;;;;;0.10;0.10;;;14.60;70.90;;;17.67;56.83;101210.69;5035443;27;97264;-73
2021/07/24 03:02:21;;;;;;;1.20;0.95;;;14.70;71.00;;;17.68;57.50;101213.03;5036272;27;97970;-72
2021/07/24 03:04:51;;;;;;;36.38;1.33;;;14.70;71.00;;;17.65;57.34;101210.22;5019829;27;97770;-72
2021/07/24 03:07:20;;;;;;;1.30;0.63;;;14.60;70.90;;;17.64;56.75;101212.13;5037036;27;97251;-72
2021/07/24 03:09:50;;;;;;;1.80;1.65;;;14.60;70.90;;;17.67;56.86;101211.47;5027337;27;96890;-73
2021/07/24 03:12:19;;;;;;;20.48;1.75;;;14.60;71.00;;;17.69;57.37;101203.00;5035357;27;97085;-73
2021/07/24 03:14:49;;;;;;;2.92;1.00;;;14.60;71.00;;;17.67;57.43;101206.03;5040415;27;97746;-73
2021/07/24 03:17:17;;;;;;;2.28;1.00;;;14.60;71.00;;;17.60;56.88;101202.31;5041209;27;96789;-73
2021/07/24 03:19:47;;;;;;;0.73;0.73;;;14.60;71.10;;;17.55;56.81;101195.19;5038474;27;97904;-73
2021/07/24 03:22:16;;;;;;;2.85;1.58;;;14.60;71.10;;;17.55;56.75;101184.34;5035941;27;96828;-73
2021/07/24 03:24:44;;;;;;;0.95;0.60;;;14.60;71.00;;;17.54;57.74;101179.25;5038281;27;97677;-73
2021/07/24 03:27:18;;;;;;;0.80;0.80;;;14.50;71.10;;;17.52;57.69;101184.22;5025605;27;96866;-73
2021/07/24 03:29:49;;;;;;;1.42;1.33;;;14.50;71.10;;;17.55;57.51;101183.53;5039139;27;96962;-73
2021/07/24 03:32:18;;;;;;;0.60;0.60;;;14.50;71.10;;;17.55;57.59;101183.53;5042738;27;98755;-73
2021/07/24 03:34:47;;;;;;;6.03;1.27;;;14.50;71.20;;;17.56;56.73;101182.41;5032431;27;97731;-73
2021/07/24 03:37:16;;;;;;;1.65;0.90;;;14.50;71.20;;;17.43;57.59;101170.00;5038939;27;96772;-73
2021/07/24 03:39:45;;;;;;;0.75;0.75;;;14.50;71.20;;;17.38;57.37;101160.16;5039837;27;96982;-73
2021/07/24 03:42:14;;;;;;;3.22;0.55;;;14.50;71.20;;;17.35;58.30;101158.13;5045179;27;98116;-73
2021/07/24 03:44:43;;;;;;;1.05;0.38;;;14.50;71.20;;;17.35;57.51;101160.06;5033386;27;96886;-73
2021/07/24 03:47:12;;;;;;;4.70;0.80;;;14.50;71.20;;;17.39;57.91;101172.56;5039638;27;97235;-73
2021/07/24 03:49:41;;;;;;;1.92;1.60;;;14.50;71.20;;;17.38;58.19;101171.00;5037341;27;97255;-73
2021/07/24 03:52:10;;;;;;;1.48;1.38;;;14.50;71.20;;;17.41;57.19;101175.75;5040987;27;97846;-73
2021/07/24 03:54:38;;;;;;;1.10;0.93;;;14.50;71.20;;;17.50;57.17;101178.34;5035048;27;98777;-74
2021/07/24 03:57:07;;;;;;;1.02;0.60;;;14.50;71.90;;;17.45;57.46;101173.97;5037397;27;97262;-73
2021/07/24 03:59:36;;;;;;;0.10;0.10;;;14.50;71.20;;;17.47;57.45;101168.19;5041569;27;97245;-73
2021/07/24 04:02:08;;;;;;;1.85;1.08;;;14.50;71.20;;;17.60;56.79;101159.75;5040568;27;97234;-73
2021/07/24 04:04:39;;;;;;;2.35;1.25;;;14.50;71.10;;;17.68;57.27;101149.94;5040456;27;97684;-73
2021/07/24 04:07:08;;;;;;;0.65;0.65;;;14.50;71.10;;;17.73;57.11;101153.22;5035229;27;97207;-73
2021/07/24 04:09:37;;;;;;;0.88;0.88;;;14.60;71.10;;;17.79;56.41;101156.47;5023297;27;97500;-73
2021/07/24 04:12:10;;;;;;;5.65;1.67;;;14.60;71.10;;;17.79;56.48;101153.75;5042330;27;97903;-73
2021/07/24 04:14:40;;;;;;;2.35;1.35;;;14.60;71.00;;;17.88;56.66;101163.38;5035711;27;97283;-73
2021/07/24 04:17:09;;;;;;;0.55;0.55;;;14.70;71.00;;;17.98;56.21;101156.69;5034013;27;96819;-73
2021/07/24 04:19:39;;;;;;;0.73;0.63;;;14.80;70.90;;;18.15;55.66;101162.66;5025236;27;97019;-73
2021/07/24 04:22:07;;;;;;;0.68;0.30;;;14.90;70.70;;;18.32;56.04;101167.06;5035584;27;97375;-73
2021/07/24 04:24:37;;;;;;;7.63;1.80;;;14.90;70.60;;;18.46;55.70;101162.84;5038974;27;97486;-73
2021/07/24 04:27:07;;;;;;;3.20;0.98;;;15.10;70.50;;;18.63;55.05;101159.06;5038931;27;97785;-73
2021/07/24 04:29:36;;;;;;;1.23;1.15;;;15.10;70.30;;;18.62;55.50;101165.63;5033228;27;97640;-73
2021/07/24 04:32:07;;;;;;;0.85;0.82;;;15.20;70.10;;;18.73;55.29;101155.84;5036295;27;96872;-73
2021/07/24 04:34:35;;;;;;;0.52;0.50;;;15.40;70.10;;;18.88;55.10;101147.75;5036549;27;96859;-73
2021/07/24 04:37:06;;;;;;;0.80;0.80;;;15.40;69.90;;;18.91;55.27;101136.19;5035486;27;96789;-72
2021/07/24 04:39:35;;;;;;;0.95;0.93;;;15.50;69.80;;;18.98;55.05;101137.19;5035467;27;96803;-73
2021/07/24 04:42:06;;;;;;;1.05;0.52;;;15.60;69.70;;;19.07;54.70;101142.47;5033809;27;97783;-73
2021/07/24 04:44:35;;;;;;;0.98;0.70;;;15.70;69.70;;;19.14;54.73;101150.78;5037889;27;96939;-73
2021/07/24 04:47:05;;;;;;;3.47;1.55;;;15.60;69.60;;;19.16;54.76;101145.84;5036675;27;97369;-72
2021/07/24 04:49:34;;;;;;;0.75;0.73;;;15.70;69.60;;;19.18;54.89;101149.78;5033416;27;97031;-72
2021/07/24 04:52:07;;;;;;;0.50;0.50;;;15.70;69.60;;;19.22;54.78;101152.63;5037343;27;98088;-72
2021/07/24 04:54:36;;;;;;;1.60;1.30;;;15.70;69.60;;;19.34;54.62;101150.59;5035239;27;98110;-73
2021/07/24 04:57:06;;;;;;;0.77;0.70;;;15.80;69.60;;;19.49;54.66;101144.38;5034335;27;96793;-73
2021/07/24 04:59:37;;;;;;;0.38;0.38;;;15.90;69.60;;;19.63;54.12;101136.56;5039949;27;97984;-74
2021/07/24 05:02:07;;;;;;;1.02;1.00;;;16.00;69.40;;;19.85;53.60;101138.66;5036090;27;97897;-73
2021/07/24 05:04:35;;;;;;;0.20;0.20;;;16.10;69.30;;;20.10;53.77;101145.47;5036093;27;97283;-73
2021/07/24 05:07:06;;;;;;;0.88;0.88;;;16.30;69.00;;;20.41;52.37;101139.94;5042199;27;96987;-73
2021/07/24 05:09:35;;;;;;;0.73;0.73;;;16.50;68.80;;;20.60;53.10;101153.56;5035042;27;97384;-72
2021/07/24 05:12:06;;;;;;;1.52;0.70;;;16.70;68.50;;;20.78;52.69;101144.59;5037285;27;97715;-73
2021/07/24 05:14:36;;;;;;;0.50;0.50;;;16.90;68.30;;;20.95;52.24;101137.94;5034809;27;97902;-73
2021/07/24 05:17:11;;;;;;;1.98;1.40;;;17.00;68.10;;;20.94;52.66;101147.25;5032695;27;97571;-73
2021/07/24 05:19:43;;;;;;;2.58;1.30;;;17.10;68.10;;;21.02;52.03;101144.31;5035285;27;96890;-72
2021/07/24 05:22:15;;;;;;;3.53;1.35;;;17.20;68.00;;;21.16;52.29;101147.28;5034493;27;98126;-72
2021/07/24 05:24:47;;;;;;;2.50;1.43;;;17.30;67.90;;;21.23;53.04;101133.78;5036251;27;96977;-73
2021/07/24 05:27:16;;;;;;;1.75;0.98;;;17.40;67.90;;;21.25;52.44;101117.84;5037893;27;97632;-73
2021/07/24 05:29:46;;;;;;;1.38;1.17;;;17.50;67.80;;;21.36;52.48;101115.31;5035531;27;96970;-73
2021/07/24 05:32:14;;;;;;;7.78;0.90;;;17.60;67.70;;;21.33;53.12;101105.13;5036305;27;98014;-73
2021/07/24 05:34:43;;;;;;;0.68;0.68;;;17.70;67.70;;;21.28;52.95;101092.59;5038184;27;97727;-73
2021/07/24 05:37:13;;;;;;;0.75;0.63;;;17.70;67.70;;;21.50;52.16;101085.56;5043415;27;96889;-72
2021/07/24 05:39:42;;;;;;;2.70;0.65;;;18.00;67.80;;;23.76;48.41;101079.19;5035799;27;96946;-72
2021/07/24 05:42:10;;;;;;;0.63;0.63;;;19.10;66.90;;;26.79;43.78;101070.34;5031770;27;97084;-72
2021/07/24 05:44:40;;;;;;;0.30;0.30;;;20.80;65.00;;;29.42;39.99;101066.16;5036264;27;97778;-73
2021/07/24 05:47:08;;;;;;;1.00;0.73;;;22.60;62.80;;;31.08;38.53;101055.63;5032541;27;96870;-73
2021/07/24 05:49:37;;;;;;;4.85;2.50;;;24.30;60.90;;;32.58;37.72;101045.19;5031193;27;96993;-73
2021/07/24 05:52:11;;;;;;;10.15;1.33;;;25.80;59.60;;;34.20;36.87;101033.72;5036784;27;97841;-73
2021/07/24 05:54:41;;;;;;;1.70;0.93;;;27.30;58.60;;;35.26;36.02;101020.69;5036299;27;97161;-73
2021/07/24 05:57:10;;;;;;;3.78;2.55;;;28.50;57.80;;;36.26;35.89;101030.56;5034012;27;96791;-74
2021/07/24 05:59:38;;;;;;;3.47;0.68;;;29.60;57.20;;;37.40;34.96;101030.94;5039055;27;96900;-74
2021/07/24 06:02:07;;;;;;;4.57;1.63;;;30.70;57.10;;;38.73;34.24;101032.91;5037431;27;98248;-74
2021/07/24 06:04:39;;;;;;;4.22;1.50;;;31.80;56.70;;;39.84;34.39;101017.03;5040063;27;97849;-75
2021/07/24 06:07:07;;;;;;;2.28;1.35;;;32.80;56.50;;;40.64;34.01;101005.47;5035184;27;96845;-74
2021/07/24 06:09:36;;;;;;;2.95;1.60;;;33.90;55.90;;;41.41;34.13;100996.16;5037148;27;96999;-74
2021/07/24 06:12:09;;;;;;;4.65;1.67;;;34.60;55.50;;;41.39;34.60;100986.72;5038415;27;98121;-74
2021/07/24 06:14:38;;;;;;;2.40;1.55;;;34.90;55.50;;;41.55;34.73;101000.03;5032378;27;98899;-72
2021/07/24 06:17:07;;;;;;;2.20;1.40;;;35.20;55.80;;;40.59;37.22;101003.41;5035190;27;97308;-72
2021/07/24 06:19:36;;;;;;;4.57;2.28;;;35.10;56.30;;;40.47;37.70;101005.38;5034006;27;98658;-72
2021/07/24 06:22:06;;;;;;;2.15;1.30;;;34.90;56.80;;;39.35;39.54;101006.00;5034068;27;97218;-70
2021/07/24 06:24:35;;;;;;;2.50;1.50;;;34.50;57.10;;;37.70;42.53;101013.78;5034060;27;100440;-70
2021/07/24 06:27:05;;;;;;;3.22;1.77;;;33.70;58.20;;;35.67;46.03;101020.09;5038238;27;96844;-71
2021/07/24 06:29:34;;;;;;;2.55;2.05;;;32.50;59.60;;;33.83;48.93;101028.34;5036612;27;96791;-74
2021/07/24 06:32:06;;;;;;;4.85;1.77;;;31.30;61.00;;;32.83;50.34;101036.91;5034208;27;97006;-73
2021/07/24 06:34:35;;;;;;;1.30;0.65;;;30.30;62.20;;;32.69;50.38;101032.56;5032684;27;97587;-73
2021/07/24 06:37:04;;;;;;;1.20;1.00;;;29.60;63.10;;;32.61;49.71;101033.22;5036392;27;96753;-73
2021/07/24 06:39:33;;;;;;;1.38;1.25;;;29.30;63.30;;;32.58;49.17;101031.31;5033570;27;96798;-73
2021/07/24 06:42:05;;;;;;;4.88;1.92;;;29.00;63.30;;;33.47;46.98;101025.22;5031170;27;97471;-73
2021/07/24 06:44:35;;;;;;;8.68;1.63;;;29.10;63.10;;;34.93;44.10;101022.44;5032205;27;97739;-72
2021/07/24 06:47:04;;;;;;;2.40;0.80;;;29.60;62.10;;;36.75;41.12;101019.84;5034214;27;98566;-73
2021/07/24 06:49:33;;;;;;;4.72;1.15;;;30.50;61.20;;;38.38;38.54;101023.69;5034479;27;97197;-72
2021/07/24 06:52:07;;;;;;;0.47;0.32;;;31.50;59.90;;;39.65;37.14;101010.97;5031427;27;97106;-73
2021/07/24 06:54:36;;;;;;;1.85;1.50;;;32.60;59.10;;;40.87;36.13;101010.00;5034905;27;96786;-73
2021/07/24 06:57:04;;;;;;;2.33;1.08;;;33.70;58.10;;;42.02;34.96;101001.94;5034130;27;98210;-74
2021/07/24 06:59:34;;;;;;;1.33;0.77;;;34.70;57.40;;;42.94;34.37;100994.72;5029461;27;97074;-74
2021/07/24 07:02:06;;;;;;;3.15;1.92;;;35.60;56.60;;;43.32;34.37;101013.56;5032079;27;98132;-74
2021/07/24 07:04:35;;;;;;;4.30;1.60;;;36.20;56.10;;;43.40;34.51;101008.88;5033700;27;98317;-72
2021/07/24 07:07:07;;;;;;;3.08;1.63;;;36.50;55.90;;;44.39;33.70;100994.09;5032464;27;97883;-72
2021/07/24 07:09:36;;;;;;;1.17;1.08;;;37.00;55.70;;;45.37;32.51;101006.34;5033643;27;97399;-72
2021/07/24 07:12:06;;;;;;;2.70;1.15;;;37.60;55.70;;;46.22;31.87;100944.50;5038759;27;96824;-73
2021/07/24 07:14:36;;;;;;;3.50;1.38;;;38.20;55.50;;;46.33;32.68;100978.34;5033423;27;97307;-73
2021/07/24 07:17:04;;;;;;;0.85;0.80;;;38.70;55.50;;;46.53;32.07;100976.94;5032839;27;97186;-73
2021/07/24 07:19:35;;;;;;;1.52;1.20;;;38.80;55.40;;;45.91;33.35;100987.78;5034324;27;96743;-73
2021/07/24 07:22:06;;;;;;;8.27;1.35;;;38.50;55.70;;;46.72;32.39;100974.81;5038568;27;97870;-74
2021/07/24 07:24:36;;;;;;;2.35;0.93;;;38.70;56.10;;;46.63;32.92;100993.03;5029966;27;97728;-73
2021/07/24 07:27:05;;;;;;;1.33;1.23;;;38.80;56.00;;;45.01;35.76;100988.03;5030558;27;96592;-72
2021/07/24 07:29:35;;;;;;;2.00;1.20;;;38.30;56.90;;;46.13;33.83;100987.44;5027190;27;100632;-72
2021/07/24 07:32:06;;;;;;;1.10;1.10;;;38.30;56.90;;;46.12;33.88;100993.66;5029223;27;98342;-72
2021/07/24 07:34:35;;;;;;;2.28;1.83;;;38.40;56.80;;;44.13;36.64;101002.25;5034646;27;97865;-73
2021/07/24 07:37:05;;;;;;;3.97;1.38;;;37.80;57.30;;;43.73;36.65;100998.19;5031543;27;98375;-72
2021/07/24 07:39:33;;;;;;;2.35;1.30;;;37.30;57.80;;;43.97;35.97;100998.25;5029792;27;97211;-73
2021/07/24 07:42:04;;;;;;;2.15;0.95;;;37.00;58.10;;;44.45;35.38;100995.56;5037937;27;96934;-73
2021/07/24 07:44:34;;;;;;;2.15;1.05;;;36.80;58.20;;;43.53;37.40;101001.38;5017597;27;97845;-72
2021/07/24 07:47:09;;;;;;;2.72;1.13;;;36.70;58.30;;;40.91;41.06;100996.47;5033263;27;97098;-72
2021/07/24 07:49:38;;;;;;;2.17;1.85;;;35.80;59.00;;;40.07;41.93;100990.72;5031891;27;97818;-72
2021/07/24 07:52:08;;;;;;;0.77;0.45;;;35.10;60.00;;;40.77;40.12;100978.47;5035752;27;97650;-71
2021/07/24 07:54:36;;;;;;;2.42;1.90;;;34.50;60.50;;;40.52;40.55;100976.53;5030534;27;97458;-72
2021/07/24 07:57:05;;;;;;;3.03;1.45;;;34.40;60.70;;;39.13;42.58;100971.28;5032474;27;96789;-73
2021/07/24 07:59:35;;;;;;;3.03;1.70;;;34.00;61.10;;;38.55;43.75;100961.06;5032145;27;97742;-73
2021/07/24 08:02:07;;;;;;;1.67;1.17;;;33.60;61.40;;;38.63;42.41;100965.00;5034471;27;97419;-71
2021/07/24 08:04:36;;;;;;;1.90;0.65;;;33.10;61.60;;;38.84;41.36;100960.97;5034280;27;97197;-71
2021/07/24 08:07:05;;;;;;;2.30;1.23;;;32.90;61.60;;;38.76;41.73;100957.06;5033156;27;97513;-72
2021/07/24 08:09:34;;;;;;;1.80;1.13;;;32.70;62.10;;;38.35;42.01;100961.00;5035582;27;97463;-71
2021/07/24 08:12:05;;;;;;;1.88;1.17;;;32.50;61.60;;;38.69;41.06;100948.25;5050487;27;98350;-71
2021/07/24 08:14:36;;;;;;;1.85;1.38;;;32.30;61.40;;;38.18;41.82;100950.78;5040251;27;96951;-71
2021/07/24 08:17:07;;;;;;;1.00;0.52;;;32.20;61.40;;;38.16;41.07;100936.50;5036807;27;96895;-71
2021/07/24 08:19:37;;;;;;;28.27;1.60;;;32.00;61.50;;;38.77;40.10;100929.78;5039308;27;97409;-71
2021/07/24 08:22:06;;;;;;;1.98;1.52;;;32.00;61.70;;;38.09;41.76;100932.06;5036839;27;97572;-71
2021/07/24 08:24:35;;;;;;;1.33;1.20;;;32.00;61.50;;;37.89;41.29;100936.81;5037612;27;96804;-71
2021/07/24 08:27:06;;;;;;;4.15;1.00;;;31.90;61.60;;;37.49;42.21;100930.22;5039778;27;96855;-71
2021/07/24 08:29:39;;;;;;;1.30;0.65;;;31.70;61.40;;;38.62;39.13;100927.03;5036369;27;96962;-71
2021/07/24 08:32:09;;;;;;;4.35;1.27;;;31.70;61.40;;;38.26;40.50;100923.91;5035516;27;97867;-72
2021/07/24 08:34:38;;;;;;;1.17;0.70;;;31.70;61.40;;;38.92;38.95;100927.72;5037507;27;98561;-72
2021/07/24 08:37:07;;;;;;;2.00;1.20;;;31.70;61.40;;;39.62;37.88;100910.94;5036065;27;96794;-72
2021/07/24 08:39:36;;;;;;;1.27;1.17;;;31.80;61.20;;;41.08;35.25;100916.50;5037949;27;96924;-72
2021/07/24 08:42:06;;;;;;;0.73;0.63;;;32.10;60.80;;;41.12;35.19;100905.78;5037390;27;96994;-72
2021/07/24 08:44:38;;;;;;;2.40;1.40;;;32.40;60.50;;;40.89;36.15;100909.03;5033902;27;96835;-72
2021/07/24 08:47:08;;;;;;;1.50;1.17;;;32.60;60.40;;;39.80;38.75;100902.16;5035458;27;96854;-71
2021/07/24 08:49:37;;;;;;;1.50;1.27;;;32.60;60.60;;;39.65;38.04;100909.19;5034286;27;97196;-71
2021/07/24 08:52:07;;;;;;;5.45;1.63;;;32.50;60.60;;;41.20;35.65;100894.81;5041620;27;97954;-72
2021/07/24 08:54:35;;;;;;;1.25;0.75;;;32.60;60.50;;;39.98;38.22;100889.81;5035989;27;97595;-72
2021/07/24 08:57:08;;;;;;;2.03;1.25;;;32.70;60.50;;;39.61;38.76;100892.56;5035072;27;97138;-71
2021/07/24 08:59:40;;;;;;;2.38;1.15;;;32.60;60.60;;;40.25;37.27;100889.25;5032727;27;98079;-71
2021/07/24 09:02:10;;;;;;;2.15;0.77;;;32.50;60.80;;;40.30;37.41;100883.66;5037411;27;97851;-72
2021/07/24 09:04:46;;;;;;;6.32;1.40;;;32.70;60.80;;;40.24;37.41;100877.22;5037278;27;98196;-71
2021/07/24 09:07:16;;;;;;;1.63;1.05;;;32.70;60.70;;;40.61;37.39;100880.00;5037709;27;96979;-72
2021/07/24 09:09:47;;;;;;;0.95;0.75;;;32.70;60.70;;;40.93;36.93;100864.56;5044884;27;96931;-72
2021/07/24 09:12:16;;;;;;;2.85;1.38;;;32.90;60.70;;;41.75;35.69;100873.16;5036826;27;98157;-71
2021/07/24 09:14:47;;;;;;;6.50;1.17;;;33.10;60.70;;;42.40;34.77;100857.44;5037488;27;97134;-72
2021/07/24 09:17:21;;;;;;;1.42;0.60;;;33.30;60.50;;;42.88;33.98;100855.00;5033415;27;96839;-72
2021/07/24 09:19:53;;;;;;;0.63;0.60;;;33.50;60.20;;;43.25;34.19;100853.25;5036237;27;96863;-72
2021/07/24 09:22:33;;;;;;;0.75;0.57;;;33.70;60.40;;;43.91;33.10;100838.56;5039838;27;98092;-71
2021/07/24 09:25:14;;;;;;;2.00;0.93;;;33.90;60.20;;;44.17;33.55;100831.13;5023115;27;96915;-72
2021/07/24 09:27:45;;;;;;;1.17;1.02;;;34.20;60.20;;;44.32;33.05;100830.69;5033806;27;97237;-71
2021/07/24 09:30:33;;;;;;;0.37;0.37;;;34.40;60.40;;;44.42;33.83;100829.03;5037625;27;99753;-72
2021/07/24 09:33:08;;;;;;;1.33;1.20;;;34.60;60.40;;;44.72;32.99;100835.34;5034267;27;97944;-72
2021/07/24 09:35:40;;;;;;;1.55;0.88;;;34.80;60.70;;;44.90;33.59;100835.38;5032860;27;97790;-74
2021/07/24 09:38:17;;;;;;;0.93;0.73;;;35.00;60.90;;;44.67;33.73;100825.63;5034272;27;96981;-72
2021/07/24 09:40:46;;;;;;;0.50;0.50;;;35.10;60.60;;;44.36;34.54;100820.66;5034760;27;96747;-72
2021/07/24 09:43:35;;;;;;;2.13;1.05;;;35.10;60.90;;;43.73;35.54;100816.66;5033848;27;97779;-76
2021/07/24 09:46:16;;;;;;;1.88;0.57;;;35.00;60.40;;;42.73;37.31;100824.28;5034165;27;97914;-72
2021/07/24 09:48:47;;;;;;;1.92;1.45;;;34.80;60.70;;;41.48;39.07;100834.50;5033487;27;96827;-73
2021/07/24 09:51:33;;;;;;;2.40;1.23;;;34.50;61.30;;;41.48;39.00;100828.88;5038167;27;97180;-72
2021/07/24 09:54:04;;;;;;;1.50;0.95;;;34.30;61.60;;;41.57;38.53;100837.03;5032347;27;99135;-72
2021/07/24 09:56:42;;;;;;;14.80;0.95;;;34.10;61.90;;;40.77;40.04;100835.09;5038187;27;97168;-72
2021/07/24 09:59:30;;;;;;;3.08;1.67;;;34.00;61.70;;;40.21;41.12;100840.94;5039099;27;97365;-72
2021/07/24 10:02:07;;;;;;;2.10;1.42;;;33.90;62.00;;;39.40;42.24;100828.56;5036213;27;96912;-73
2021/07/24 10:04:38;;;;;;;2.15;1.45;;;33.70;61.90;;;39.01;42.88;100824.59;5031923;27;97969;-73
2021/07/24 10:07:32;;;;;;;5.60;1.60;;;33.50;62.00;;;38.91;42.50;100830.88;5036676;27;98635;-73
2021/07/24 10:10:04;;;;;;;1.25;1.15;;;33.30;62.00;;;38.91;43.12;100817.59;5031726;27;96879;-73
2021/07/24 10:12:33;;;;;;;;;;;33.30;62.20;;;38.91;43.38;100826.00;5037859;27;97462;-72
2021/07/24 10:15:05;;;;;;;1.40;0.85;;;33.40;62.00;;;38.93;43.42;100831.91;5008023;27;98212;-71
2021/07/24 10:17:35;;;;;;;1.10;0.82;;;33.50;62.30;;;38.82;43.69;100831.00;5034428;27;97677;-72
2021/07/24 10:20:07;;;;;;;2.97;1.52;;;33.50;61.90;;;38.46;44.11;100823.16;5038581;27;96865;-71
2021/07/24 10:22:36;;;;;;;1.63;1.53;;;33.50;61.90;;;38.25;44.17;100830.75;5033460;27;97436;-71
2021/07/24 10:25:06;;;;;;;1.27;1.08;;;33.50;61.80;;;37.83;44.87;100832.38;5035155;27;97891;-73
2021/07/24 10:27:38;;;;;;;0.90;0.80;;;33.30;61.70;;;37.54;45.65;100829.63;5035953;27;96931;-72
2021/07/24 10:30:09;;;;;;;1.63;1.10;;;33.20;61.90;;;37.49;45.22;100835.13;5035985;27;96938;-72
2021/07/24 10:32:42;;;;;;;2.10;1.60;;;33.00;61.80;;;37.57;45.02;100831.47;5030625;27;97308;-72